createdAt,value
2022-12-25T00:00:11.000Z,13.8
2022-12-25T00:01:27.000Z,13.8
2022-12-25T00:02:43.000Z,13.8
2022-12-25T00:03:58.000Z,13.7
2022-12-25T00:05:14.000Z,13.7
2022-12-25T00:06:30.000Z,13.7
2022-12-25T00:07:46.000Z,13.6
2022-12-25T00:09:03.000Z,13.6
2022-12-25T00:10:19.000Z,13.6
2022-12-25T00:11:35.000Z,13.6
2022-12-25T00:12:51.000Z,13.6
2022-12-25T00:14:07.000Z,13.7
2022-12-25T00:15:23.000Z,13.6
2022-12-25T00:16:39.000Z,13.6
2022-12-25T00:17:56.000Z,13.6
2022-12-25T00:19:12.000Z,13.6
2022-12-25T00:20:27.000Z,13.5
2022-12-25T00:21:43.000Z,13.5
2022-12-25T00:22:59.000Z,13.4
2022-12-25T00:24:15.000Z,13.5
2022-12-25T00:25:32.000Z,13.4
2022-12-25T00:26:48.000Z,13.4
2022-12-25T00:28:03.000Z,13.3
2022-12-25T00:29:19.000Z,13.3
2022-12-25T00:30:35.000Z,13.3
2022-12-25T00:31:51.000Z,13.3
2022-12-25T00:33:07.000Z,13.2
2022-12-25T00:34:24.000Z,13.2
2022-12-25T00:35:40.000Z,13.1
2022-12-25T00:36:56.000Z,13.1
2022-12-25T00:38:12.000Z,13
2022-12-25T00:39:28.000Z,12.9
2022-12-25T00:40:44.000Z,12.9
2022-12-25T00:42:00.000Z,12.9
2022-12-25T00:43:17.000Z,12.9
2022-12-25T00:44:32.000Z,12.9
2022-12-25T00:45:48.000Z,12.8
2022-12-25T00:47:04.000Z,12.8
2022-12-25T00:48:20.000Z,12.8
2022-12-25T00:49:36.000Z,12.8
2022-12-25T00:50:52.000Z,12.7
2022-12-25T00:52:09.000Z,12.7
2022-12-25T00:53:25.000Z,12.7
2022-12-25T00:54:41.000Z,12.7
2022-12-25T00:55:57.000Z,12.7
2022-12-25T00:57:13.000Z,12.6
2022-12-25T00:58:29.000Z,12.6
2022-12-25T00:59:46.000Z,12.7
2022-12-25T01:01:01.000Z,12.8
2022-12-25T01:02:17.000Z,12.9
2022-12-25T01:03:33.000Z,13.2
2022-12-25T01:04:49.000Z,13.5
2022-12-25T01:06:05.000Z,13.8
2022-12-25T01:07:21.000Z,13.9
2022-12-25T01:08:38.000Z,14.1
2022-12-25T01:09:54.000Z,14.1
2022-12-25T01:11:10.594Z,13.8
2022-12-25T01:12:26.000Z,13.6
2022-12-25T01:13:42.000Z,13.4
2022-12-25T01:14:58.000Z,13.1
2022-12-25T01:16:14.000Z,13
2022-12-25T01:17:30.000Z,12.9
2022-12-25T01:18:46.000Z,12.8
2022-12-25T01:20:02.000Z,12.7
2022-12-25T01:21:18.000Z,12.6
2022-12-25T01:22:35.044Z,12.5
2022-12-25T01:23:50.000Z,12.4
2022-12-25T01:25:07.000Z,12.4
2022-12-25T01:26:23.000Z,12.2
2022-12-25T01:27:39.000Z,12.2
2022-12-25T01:28:55.000Z,12.1
2022-12-25T01:30:11.000Z,12.2
2022-12-25T01:31:27.000Z,12.3
2022-12-25T01:32:43.000Z,12.3
2022-12-25T01:33:59.000Z,12.2
2022-12-25T01:35:15.000Z,12.2
2022-12-25T01:36:31.000Z,12.2
2022-12-25T01:37:47.000Z,12.2
2022-12-25T01:39:03.000Z,12.2
2022-12-25T01:40:20.017Z,12.2
2022-12-25T01:41:35.000Z,12.1
2022-12-25T01:42:52.000Z,12.1
2022-12-25T01:44:08.454Z,12.2
2022-12-25T01:45:24.000Z,12.1
2022-12-25T01:46:40.000Z,12.1
2022-12-25T01:47:56.000Z,12.1
2022-12-25T01:49:12.000Z,12.1
2022-12-25T01:50:27.000Z,12.1
2022-12-25T01:51:44.000Z,12.1
2022-12-25T01:53:00.000Z,12.1
2022-12-25T01:54:16.000Z,12.2
2022-12-25T01:55:32.000Z,12.2
2022-12-25T01:56:48.000Z,12.3
2022-12-25T01:58:04.000Z,12.2
2022-12-25T01:59:21.000Z,12.2
2022-12-25T02:00:37.000Z,12.2
2022-12-25T02:01:53.000Z,12.2
2022-12-25T02:03:09.673Z,12.1
2022-12-25T02:04:25.000Z,12.1
2022-12-25T02:05:41.000Z,12.1
2022-12-25T02:06:56.000Z,12.1
2022-12-25T02:08:13.000Z,12.1
2022-12-25T02:09:29.000Z,12.1
2022-12-25T02:10:45.000Z,12.2
2022-12-25T02:12:01.000Z,12.1
2022-12-25T02:13:17.000Z,12.1
2022-12-25T02:14:33.000Z,12.2
2022-12-25T02:15:49.000Z,12.3
2022-12-25T02:17:06.000Z,12.3
2022-12-25T02:18:22.000Z,12.3
2022-12-25T02:19:38.000Z,12.3
2022-12-25T02:20:54.000Z,12.2
2022-12-25T02:22:10.000Z,12.2
2022-12-25T02:23:25.000Z,12.2
2022-12-25T02:24:41.000Z,12.2
2022-12-25T02:25:58.000Z,12.3
2022-12-25T02:27:14.000Z,12.2
2022-12-25T02:28:30.000Z,12.2
2022-12-25T02:29:46.000Z,12.2
2022-12-25T02:31:02.000Z,12.2
2022-12-25T02:32:18.000Z,12.2
2022-12-25T02:33:35.000Z,12.2
2022-12-25T02:34:51.000Z,12.2
2022-12-25T02:36:07.000Z,12.1
2022-12-25T02:37:23.000Z,12.2
2022-12-25T02:38:39.000Z,12.1
2022-12-25T02:39:54.000Z,12.2
2022-12-25T02:41:10.000Z,12.3
2022-12-25T02:42:27.000Z,12.3
2022-12-25T02:43:43.000Z,12.2
2022-12-25T02:44:59.000Z,12.2
2022-12-25T02:46:15.716Z,12.3
2022-12-25T02:47:31.000Z,12.2
2022-12-25T02:48:47.000Z,12.2
2022-12-25T02:50:03.000Z,12.2
2022-12-25T02:51:20.000Z,12.1
2022-12-25T02:52:36.000Z,12.1
2022-12-25T02:53:52.000Z,12.1
2022-12-25T02:55:08.000Z,12.1
2022-12-25T02:56:23.000Z,12
2022-12-25T02:57:39.000Z,12.1
2022-12-25T02:58:55.000Z,12.2
2022-12-25T03:00:12.000Z,12.2
2022-12-25T03:01:28.000Z,12.2
2022-12-25T03:02:44.000Z,12.2
2022-12-25T03:04:00.000Z,12.2
2022-12-25T03:05:16.000Z,12.2
2022-12-25T03:06:32.000Z,12.2
2022-12-25T03:07:49.000Z,12.2
2022-12-25T03:09:05.000Z,12.2
2022-12-25T03:10:21.000Z,12.3
2022-12-25T03:11:37.000Z,12.3
2022-12-25T03:12:52.000Z,12.2
2022-12-25T03:14:08.000Z,12.2
2022-12-25T03:15:24.000Z,12
2022-12-25T03:16:41.000Z,11.9
2022-12-25T03:17:57.000Z,11.8
2022-12-25T03:19:13.000Z,11.6
2022-12-25T03:20:29.000Z,11.6
2022-12-25T03:21:45.000Z,11.6
2022-12-25T03:23:01.000Z,11.6
2022-12-25T03:24:17.000Z,11.4
2022-12-25T03:25:34.000Z,11.4
2022-12-25T03:26:50.000Z,11.3
2022-12-25T03:28:06.000Z,11.3
2022-12-25T03:29:21.000Z,11.3
2022-12-25T03:30:37.000Z,11.3
2022-12-25T03:31:53.000Z,11.4
2022-12-25T03:33:09.000Z,11.4
2022-12-25T03:34:26.366Z,11.4
2022-12-25T03:35:42.498Z,11.4
2022-12-25T03:36:58.000Z,11.6
2022-12-25T03:38:14.000Z,11.6
2022-12-25T03:39:30.000Z,11.7
2022-12-25T03:40:46.000Z,11.6
2022-12-25T03:42:03.000Z,11.7
2022-12-25T03:43:19.000Z,11.7
2022-12-25T03:44:35.000Z,11.7
2022-12-25T03:45:50.000Z,11.7
2022-12-25T03:47:06.000Z,11.7
2022-12-25T03:48:22.000Z,11.8
2022-12-25T03:49:38.000Z,11.8
2022-12-25T03:50:55.000Z,11.9
2022-12-25T03:52:11.000Z,11.9
2022-12-25T03:53:27.000Z,11.9
2022-12-25T03:54:43.000Z,11.9
2022-12-25T03:55:59.000Z,11.9
2022-12-25T03:57:15.000Z,12
2022-12-25T03:58:31.000Z,11.9
2022-12-25T03:59:48.000Z,11.9
2022-12-25T04:01:04.000Z,12
2022-12-25T04:02:19.000Z,12
2022-12-25T04:03:35.000Z,12
2022-12-25T04:04:51.000Z,12.1
2022-12-25T04:06:07.000Z,12.1
2022-12-25T04:07:23.000Z,12.1
2022-12-25T04:08:40.356Z,12.1
2022-12-25T04:09:56.000Z,12.2
2022-12-25T04:11:12.000Z,12.2
2022-12-25T04:12:28.000Z,12.2
2022-12-25T04:13:44.000Z,12.4
2022-12-25T04:15:00.000Z,12.4
2022-12-25T04:16:17.000Z,12.5
2022-12-25T04:17:33.000Z,12.5
2022-12-25T04:18:48.000Z,12.5
2022-12-25T04:20:04.000Z,12.6
2022-12-25T04:21:20.000Z,12.8
2022-12-25T04:22:36.000Z,12.8
2022-12-25T04:23:52.000Z,12.9
2022-12-25T04:25:09.000Z,13
2022-12-25T04:26:25.000Z,13
2022-12-25T04:27:41.000Z,13
2022-12-25T04:28:57.000Z,13
2022-12-25T04:30:13.000Z,13
2022-12-25T04:31:29.000Z,13
2022-12-25T04:32:45.000Z,13
2022-12-25T04:34:02.000Z,13.1
2022-12-25T04:35:17.000Z,13.1
2022-12-25T04:36:33.000Z,13.1
2022-12-25T04:37:49.000Z,13.1
2022-12-25T04:39:05.000Z,13.1
2022-12-25T04:40:21.000Z,13.2
2022-12-25T04:41:37.000Z,13.1
2022-12-25T04:42:53.000Z,13.2
2022-12-25T04:44:09.000Z,13.2
2022-12-25T04:45:25.000Z,13.2
2022-12-25T04:46:41.000Z,13.3
2022-12-25T04:47:57.000Z,13.3
2022-12-25T04:49:13.000Z,13.3
2022-12-25T04:50:30.000Z,13.4
2022-12-25T04:51:46.378Z,13.4
2022-12-25T04:53:02.000Z,13.4
2022-12-25T04:54:18.000Z,13.4
2022-12-25T04:55:34.000Z,13.5
2022-12-25T04:56:50.962Z,13.5
2022-12-25T04:58:06.000Z,13.5
2022-12-25T04:59:22.000Z,13.6
2022-12-25T05:00:38.000Z,13.6
2022-12-25T05:01:54.000Z,13.6
2022-12-25T05:03:10.000Z,13.6
2022-12-25T05:04:26.000Z,13.6
2022-12-25T05:05:42.000Z,13.6
2022-12-25T05:06:58.000Z,13.7
2022-12-25T05:08:15.000Z,13.7
2022-12-25T05:09:31.000Z,13.7
2022-12-25T05:10:47.000Z,13.7
2022-12-25T05:12:03.000Z,13.7
2022-12-25T05:13:19.000Z,13.7
2022-12-25T05:14:35.000Z,13.7
2022-12-25T05:15:50.000Z,13.7
2022-12-25T05:17:07.000Z,13.6
2022-12-25T05:18:23.000Z,13.6
2022-12-25T05:19:39.000Z,13.6
2022-12-25T05:20:55.000Z,13.5
2022-12-25T05:22:11.902Z,13.4
2022-12-25T05:23:27.000Z,13.4
2022-12-25T05:24:43.000Z,13.4
2022-12-25T05:26:00.000Z,13.4
2022-12-25T05:27:16.000Z,13.3
2022-12-25T05:28:32.000Z,13.2
2022-12-25T05:29:48.772Z,13.3
2022-12-25T05:31:04.000Z,13.3
2022-12-25T05:32:19.000Z,13.3
2022-12-25T05:33:36.000Z,13.2
2022-12-25T05:34:52.000Z,13.1
2022-12-25T05:36:08.521Z,13.1
2022-12-25T05:37:24.664Z,13
2022-12-25T05:38:40.000Z,13
2022-12-25T05:39:56.000Z,12.9
2022-12-25T05:41:12.000Z,12.8
2022-12-25T05:42:29.000Z,12.7
2022-12-25T05:43:45.000Z,12.6
2022-12-25T05:45:01.000Z,12.5
2022-12-25T05:46:17.000Z,12.4
2022-12-25T05:47:33.000Z,12.2
2022-12-25T05:48:48.000Z,12.2
2022-12-25T05:50:04.000Z,12.1
2022-12-25T05:51:21.000Z,12.1
2022-12-25T05:52:37.000Z,12
2022-12-25T05:53:53.569Z,12
2022-12-25T05:55:09.000Z,11.9
2022-12-25T05:56:25.000Z,11.8
2022-12-25T05:57:41.000Z,11.8
2022-12-25T05:58:57.000Z,11.8
2022-12-25T06:00:14.000Z,11.7
2022-12-25T06:01:30.470Z,11.7
2022-12-25T06:02:46.000Z,11.7
2022-12-25T06:04:02.000Z,11.7
2022-12-25T06:05:17.000Z,11.7
2022-12-25T06:06:33.000Z,11.6
2022-12-25T06:07:49.000Z,11.5
2022-12-25T06:09:06.000Z,11.7
2022-12-25T06:10:22.000Z,11.7
2022-12-25T06:11:38.000Z,11.6
2022-12-25T06:12:54.000Z,11.6
2022-12-25T06:14:10.000Z,11.5
2022-12-25T06:15:27.066Z,11.5
2022-12-25T06:16:42.000Z,11.5
2022-12-25T06:17:59.000Z,11.6
2022-12-25T06:19:15.505Z,11.6
2022-12-25T06:20:31.000Z,11.6
2022-12-25T06:21:46.812Z,11.6
2022-12-25T06:23:02.957Z,11.6
2022-12-25T06:24:18.000Z,11.5
2022-12-25T06:25:35.000Z,11.5
2022-12-25T06:26:51.396Z,11.5
2022-12-25T06:28:07.000Z,11.5
2022-12-25T06:29:23.000Z,11.5
2022-12-25T06:30:39.000Z,11.4
2022-12-25T06:31:55.000Z,11.5
2022-12-25T06:33:11.000Z,11.4
2022-12-25T06:34:28.000Z,11.6
2022-12-25T06:35:44.000Z,11.4
2022-12-25T06:37:00.000Z,11.5
2022-12-25T06:38:15.000Z,11.4
2022-12-25T06:39:31.000Z,11.6
2022-12-25T06:40:47.000Z,11.6
2022-12-25T06:42:03.000Z,11.5
2022-12-25T06:43:20.000Z,11.5
2022-12-25T06:44:36.000Z,11.6
2022-12-25T06:45:52.000Z,11.5
2022-12-25T06:47:08.000Z,11.6
2022-12-25T06:48:24.000Z,11.5
2022-12-25T06:49:40.000Z,11.6
2022-12-25T06:50:56.000Z,11.5
2022-12-25T06:52:13.000Z,11.5
2022-12-25T06:53:29.000Z,11.6
2022-12-25T06:54:44.000Z,11.6
2022-12-25T06:56:00.000Z,11.5
2022-12-25T06:57:16.000Z,11.5
2022-12-25T06:58:32.000Z,11.5
2022-12-25T06:59:48.000Z,11.5
2022-12-25T07:01:05.000Z,11.5
2022-12-25T07:02:21.000Z,11.5
2022-12-25T07:03:37.000Z,11.5
2022-12-25T07:04:53.000Z,11.5
2022-12-25T07:06:09.000Z,11.4
2022-12-25T07:07:25.000Z,11.4
2022-12-25T07:08:42.236Z,11.4
2022-12-25T07:09:58.000Z,11.3
2022-12-25T07:11:13.000Z,11.3
2022-12-25T07:12:29.000Z,11.2
2022-12-25T07:13:45.000Z,11.3
2022-12-25T07:15:01.000Z,11.3
2022-12-25T07:16:17.000Z,11.3
2022-12-25T07:17:34.000Z,11.3
2022-12-25T07:18:50.000Z,11.3
2022-12-25T07:20:06.000Z,11.3
2022-12-25T07:21:22.000Z,11.2
2022-12-25T07:22:38.000Z,11.2
2022-12-25T07:23:54.000Z,11.2
2022-12-25T07:25:10.000Z,11.2
2022-12-25T07:26:27.000Z,11.2
2022-12-25T07:27:42.000Z,11.2
2022-12-25T07:28:58.000Z,11.3
2022-12-25T07:30:14.000Z,11.3
2022-12-25T07:31:30.000Z,11.3
2022-12-25T07:32:46.000Z,11.4
2022-12-25T07:34:02.000Z,11.3
2022-12-25T07:35:19.000Z,11.3
2022-12-25T07:36:35.000Z,11.2
2022-12-25T07:37:51.000Z,11.2
2022-12-25T07:39:07.000Z,11.2
2022-12-25T07:40:23.000Z,11.2
2022-12-25T07:41:39.000Z,11.2
2022-12-25T07:42:55.000Z,11.2
2022-12-25T07:44:11.000Z,11.2
2022-12-25T07:45:27.000Z,11.1
2022-12-25T07:46:43.000Z,11.1
2022-12-25T07:47:59.000Z,11.2
2022-12-25T07:49:15.000Z,11.1
2022-12-25T07:50:32.084Z,11.2
2022-12-25T07:51:47.000Z,11.2
2022-12-25T07:53:04.000Z,11.1
2022-12-25T07:54:20.000Z,11.2
2022-12-25T07:55:36.000Z,11.2
2022-12-25T07:56:52.000Z,11.2
2022-12-25T07:58:08.000Z,11.2
2022-12-25T07:59:24.000Z,11.3
2022-12-25T08:00:40.000Z,11.2
2022-12-25T08:01:56.000Z,11.2
2022-12-25T08:03:12.000Z,11.2
2022-12-25T08:04:28.000Z,11.2
2022-12-25T08:05:44.000Z,11.1
2022-12-25T08:07:00.000Z,11.1
2022-12-25T08:08:16.000Z,11.1
2022-12-25T08:09:33.000Z,11.1
2022-12-25T08:10:49.424Z,11.1
2022-12-25T08:12:05.000Z,11.1
2022-12-25T08:13:21.000Z,11.1
2022-12-25T08:14:37.000Z,11
2022-12-25T08:15:53.000Z,11
2022-12-25T08:17:08.000Z,11
2022-12-25T08:18:25.000Z,11
2022-12-25T08:19:41.000Z,11
2022-12-25T08:20:57.000Z,10.9
2022-12-25T08:22:13.000Z,10.9
2022-12-25T08:23:29.000Z,10.9
2022-12-25T08:24:45.000Z,10.9
2022-12-25T08:26:01.000Z,10.8
2022-12-25T08:27:18.000Z,10.8
2022-12-25T08:28:34.000Z,10.8
2022-12-25T08:29:50.000Z,10.7
2022-12-25T08:31:06.000Z,10.7
2022-12-25T08:32:22.000Z,10.8
2022-12-25T08:33:37.000Z,10.7
2022-12-25T08:34:53.000Z,10.7
2022-12-25T08:36:10.367Z,10.7
2022-12-25T08:37:26.000Z,10.7
2022-12-25T08:38:42.000Z,10.7
2022-12-25T08:39:58.000Z,10.6
2022-12-25T08:41:14.953Z,10.6
2022-12-25T08:42:30.000Z,10.6
2022-12-25T08:43:47.000Z,10.6
2022-12-25T08:45:03.000Z,10.5
2022-12-25T08:46:19.000Z,10.5
2022-12-25T08:47:35.681Z,10.6
2022-12-25T08:48:51.000Z,10.5
2022-12-25T08:50:06.000Z,10.5
2022-12-25T08:51:23.129Z,10.4
2022-12-25T08:52:39.000Z,10.4
2022-12-25T08:53:55.000Z,10.4
2022-12-25T08:55:11.000Z,10.4
2022-12-25T08:56:27.000Z,10.3
2022-12-25T08:57:42.000Z,10.3
2022-12-25T08:58:58.000Z,10.3
2022-12-25T09:00:14.000Z,10.2
2022-12-25T09:01:31.000Z,10.3
2022-12-25T09:02:47.000Z,10.2
2022-12-25T09:04:03.000Z,10.2
2022-12-25T09:05:19.000Z,10.2
2022-12-25T09:06:35.000Z,10.2
2022-12-25T09:07:51.000Z,10.1
2022-12-25T09:09:08.192Z,10.2
2022-12-25T09:10:24.000Z,10.1
2022-12-25T09:11:40.000Z,10
2022-12-25T09:12:56.000Z,10
2022-12-25T09:14:11.000Z,10
2022-12-25T09:15:27.000Z,10.1
2022-12-25T09:16:43.000Z,10.1
2022-12-25T09:17:59.000Z,10.1
2022-12-25T09:19:16.000Z,10
2022-12-25T09:20:32.000Z,10
2022-12-25T09:21:48.000Z,10
2022-12-25T09:23:04.000Z,10
2022-12-25T09:24:20.000Z,10
2022-12-25T09:25:36.000Z,9.9
2022-12-25T09:26:53.247Z,9.9
2022-12-25T09:28:09.000Z,10
2022-12-25T09:29:25.000Z,9.9
2022-12-25T09:30:40.000Z,9.9
2022-12-25T09:31:56.000Z,9.9
2022-12-25T09:33:12.000Z,9.9
2022-12-25T09:34:28.000Z,9.9
2022-12-25T09:35:45.277Z,9.9
2022-12-25T09:37:01.000Z,9.9
2022-12-25T09:38:17.000Z,9.8
2022-12-25T09:39:33.000Z,9.8
2022-12-25T09:40:49.000Z,9.8
2022-12-25T09:42:06.007Z,9.8
2022-12-25T09:43:21.000Z,9.7
2022-12-25T09:44:38.000Z,9.7
2022-12-25T09:45:54.000Z,9.7
2022-12-25T09:47:09.000Z,9.7
2022-12-25T09:48:25.000Z,9.7
2022-12-25T09:49:41.896Z,9.6
2022-12-25T09:50:57.000Z,9.6
2022-12-25T09:52:13.000Z,9.5
2022-12-25T09:53:30.000Z,9.6
2022-12-25T09:54:46.000Z,9.5
2022-12-25T09:56:02.000Z,9.5
2022-12-25T09:57:18.000Z,9.4
2022-12-25T09:58:34.000Z,9.4
2022-12-25T09:59:50.000Z,9.4
2022-12-25T10:01:06.000Z,9.4
2022-12-25T10:02:23.000Z,9.4
2022-12-25T10:03:38.000Z,9.2
2022-12-25T10:04:54.000Z,9.2
2022-12-25T10:06:10.000Z,9.3
2022-12-25T10:07:26.000Z,9.2
2022-12-25T10:08:42.000Z,9.2
2022-12-25T10:09:59.000Z,9.2
2022-12-25T10:11:15.000Z,9.1
2022-12-25T10:12:31.532Z,8.9
2022-12-25T10:13:47.000Z,9.1
2022-12-25T10:15:03.000Z,9.1
2022-12-25T10:16:19.000Z,8.9
2022-12-25T10:17:35.000Z,8.9
2022-12-25T10:18:52.000Z,8.8
2022-12-25T10:20:07.000Z,8.9
2022-12-25T10:21:23.000Z,8.9
2022-12-25T10:22:39.000Z,8.8
2022-12-25T10:23:55.000Z,8.8
2022-12-25T10:25:11.000Z,8.8
2022-12-25T10:26:27.000Z,8.8
2022-12-25T10:27:44.000Z,8.8
2022-12-25T10:29:00.000Z,8.8
2022-12-25T10:30:16.000Z,8.8
2022-12-25T10:31:32.000Z,8.7
2022-12-25T10:32:48.000Z,8.8
2022-12-25T10:34:04.000Z,8.6
2022-12-25T10:35:20.000Z,8.8
2022-12-25T10:36:36.000Z,8.6
2022-12-25T10:37:52.000Z,8.6
2022-12-25T10:39:08.000Z,8.6
2022-12-25T10:40:24.000Z,8.6
2022-12-25T10:41:40.000Z,8.6
2022-12-25T10:42:56.000Z,8.5
2022-12-25T10:44:12.000Z,8.5
2022-12-25T10:45:29.000Z,8.5
2022-12-25T10:46:45.000Z,8.5
2022-12-25T10:48:01.000Z,8.5
2022-12-25T10:49:17.000Z,8.4
2022-12-25T10:50:33.000Z,8.4
2022-12-25T10:51:50.072Z,8.4
2022-12-25T10:53:05.000Z,8.4
2022-12-25T10:54:21.385Z,8.4
2022-12-25T10:55:37.300Z,8.4
2022-12-25T10:56:53.000Z,8.4
2022-12-25T10:58:09.823Z,8.3
2022-12-25T10:59:25.000Z,8.3
2022-12-25T11:00:42.109Z,8.3
2022-12-25T11:01:58.000Z,8.3
2022-12-25T11:03:14.000Z,8.3
2022-12-25T11:04:30.000Z,8.3
2022-12-25T11:05:46.000Z,8.3
2022-12-25T11:07:02.000Z,8.3
2022-12-25T11:08:18.000Z,8.3
2022-12-25T11:09:34.144Z,8.2
2022-12-25T11:10:50.000Z,8.2
2022-12-25T11:12:06.000Z,8.1
2022-12-25T11:13:22.000Z,8.2
2022-12-25T11:14:38.000Z,8.1
2022-12-25T11:15:54.000Z,8.1
2022-12-25T11:17:10.000Z,8.2
2022-12-25T11:18:26.000Z,8.2
2022-12-25T11:19:43.000Z,8.2
2022-12-25T11:20:59.000Z,8.2
2022-12-25T11:22:15.000Z,8.1
2022-12-25T11:23:31.000Z,8.2
2022-12-25T11:24:47.000Z,8.2
2022-12-25T11:26:02.000Z,8.1
2022-12-25T11:27:19.192Z,8.2
2022-12-25T11:28:35.000Z,8.2
2022-12-25T11:29:51.000Z,8.2
2022-12-25T11:31:07.000Z,8.3
2022-12-25T11:32:23.000Z,8.2
2022-12-25T11:33:39.000Z,8.3
2022-12-25T11:34:55.000Z,8.2
2022-12-25T11:36:11.000Z,8.2
2022-12-25T11:37:28.000Z,8.2
2022-12-25T11:38:44.000Z,8.1
2022-12-25T11:40:00.000Z,8.1
2022-12-25T11:41:16.000Z,8.1
2022-12-25T11:42:31.954Z,8.1
2022-12-25T11:43:47.000Z,8.1
2022-12-25T11:45:04.000Z,8.1
2022-12-25T11:46:20.000Z,8.1
2022-12-25T11:47:36.000Z,8.1
2022-12-25T11:48:52.000Z,8.1
2022-12-25T11:50:08.000Z,8
2022-12-25T11:51:24.969Z,7.9
2022-12-25T11:52:40.000Z,7.9
2022-12-25T11:53:57.000Z,7.9
2022-12-25T11:55:13.000Z,8
2022-12-25T11:56:29.000Z,7.9
2022-12-25T11:57:45.000Z,7.9
2022-12-25T11:59:00.000Z,7.9
2022-12-25T12:00:17.015Z,7.9
2022-12-25T12:01:32.000Z,7.9
2022-12-25T12:02:49.307Z,7.9
2022-12-25T12:04:05.000Z,8
2022-12-25T12:05:21.000Z,7.9
2022-12-25T12:06:37.000Z,7.9
2022-12-25T12:07:53.000Z,8
2022-12-25T12:09:09.000Z,7.9
2022-12-25T12:10:25.000Z,7.9
2022-12-25T12:11:42.000Z,7.9
2022-12-25T12:12:58.000Z,7.9
2022-12-25T12:14:14.608Z,7.9
2022-12-25T12:15:29.000Z,7.9
2022-12-25T12:16:45.000Z,7.9
2022-12-25T12:18:01.000Z,7.8
2022-12-25T12:19:17.000Z,7.9
2022-12-25T12:20:34.000Z,7.8
2022-12-25T12:21:50.000Z,8
2022-12-25T12:23:06.000Z,7.9
2022-12-25T12:24:22.000Z,7.9
2022-12-25T12:25:38.000Z,7.9
2022-12-25T12:26:54.000Z,7.9
2022-12-25T12:28:10.000Z,8
2022-12-25T12:29:27.000Z,7.9
2022-12-25T12:30:43.514Z,7.9
2022-12-25T12:31:58.000Z,7.9
2022-12-25T12:33:14.000Z,7.9
2022-12-25T12:34:30.000Z,7.9
2022-12-25T12:35:46.000Z,7.9
2022-12-25T12:37:03.000Z,7.9
2022-12-25T12:38:19.000Z,7.9
2022-12-25T12:39:35.564Z,8
2022-12-25T12:40:51.000Z,7.9
2022-12-25T12:42:07.000Z,7.9
2022-12-25T12:43:23.000Z,7.9
2022-12-25T12:44:39.000Z,7.9
2022-12-25T12:45:56.000Z,8
2022-12-25T12:47:12.000Z,7.9
2022-12-25T12:48:27.581Z,7.9
2022-12-25T12:49:43.000Z,7.9
2022-12-25T12:50:59.000Z,7.9
2022-12-25T12:52:15.000Z,7.9
2022-12-25T12:53:31.000Z,7.9
2022-12-25T12:54:48.312Z,8
2022-12-25T12:56:04.000Z,7.9
2022-12-25T12:57:20.000Z,7.9
2022-12-25T12:58:36.000Z,7.9
2022-12-25T12:59:52.000Z,7.9
2022-12-25T13:01:08.000Z,7.9
2022-12-25T13:02:24.000Z,7.9
2022-12-25T13:03:41.000Z,7.9
2022-12-25T13:04:56.000Z,7.9
2022-12-25T13:06:12.000Z,8
2022-12-25T13:07:28.000Z,7.9
2022-12-25T13:08:44.000Z,7.9
2022-12-25T13:10:00.000Z,7.9
2022-12-25T13:11:16.000Z,7.9
2022-12-25T13:12:32.000Z,7.9
2022-12-25T13:13:48.000Z,7.9
2022-12-25T13:15:04.000Z,7.9
2022-12-25T13:16:20.000Z,7.9
2022-12-25T13:17:36.000Z,7.8
2022-12-25T13:18:52.000Z,7.8
2022-12-25T13:20:09.000Z,7.8
2022-12-25T13:21:25.403Z,7.7
2022-12-25T13:22:41.000Z,7.8
2022-12-25T13:23:57.000Z,7.7
2022-12-25T13:25:13.847Z,7.8
2022-12-25T13:26:29.000Z,7.8
2022-12-25T13:27:45.000Z,7.8
2022-12-25T13:29:01.000Z,7.7
2022-12-25T13:30:17.000Z,7.7
2022-12-25T13:31:33.000Z,7.7
2022-12-25T13:32:49.000Z,7.7
2022-12-25T13:34:05.000Z,7.6
2022-12-25T13:35:21.000Z,7.6
2022-12-25T13:36:37.000Z,7.7
2022-12-25T13:37:54.000Z,7.7
2022-12-25T13:39:10.000Z,7.7
2022-12-25T13:40:26.000Z,7.6
2022-12-25T13:41:42.000Z,7.6
2022-12-25T13:42:58.907Z,7.6
2022-12-25T13:44:14.000Z,7.6
2022-12-25T13:45:29.000Z,7.6
2022-12-25T13:46:46.000Z,7.6
2022-12-25T13:48:02.000Z,7.6
2022-12-25T13:49:18.000Z,7.6
2022-12-25T13:50:34.000Z,7.6
2022-12-25T13:51:50.933Z,7.7
2022-12-25T13:53:06.000Z,7.6
2022-12-25T13:54:22.000Z,7.6
2022-12-25T13:55:39.000Z,7.6
2022-12-25T13:56:55.000Z,7.6
2022-12-25T13:58:11.000Z,7.5
2022-12-25T13:59:27.000Z,7.6
2022-12-25T14:00:43.000Z,7.5
2022-12-25T14:01:59.121Z,7.5
2022-12-25T14:03:15.000Z,7.6
2022-12-25T14:04:31.000Z,7.6
2022-12-25T14:05:47.000Z,7.6
2022-12-25T14:07:03.717Z,7.6
2022-12-25T14:08:19.000Z,7.6
2022-12-25T14:09:35.000Z,7.6
2022-12-25T14:10:51.000Z,7.5
2022-12-25T14:12:08.000Z,7.6
2022-12-25T14:13:24.000Z,7.6
2022-12-25T14:14:40.000Z,7.6
2022-12-25T14:15:56.000Z,7.6
2022-12-25T14:17:12.000Z,7.6
2022-12-25T14:18:27.000Z,7.5
2022-12-25T14:19:43.000Z,7.6
2022-12-25T14:21:00.334Z,7.6
2022-12-25T14:22:16.000Z,7.6
2022-12-25T14:23:32.000Z,7.6
2022-12-25T14:24:48.000Z,7.6
2022-12-25T14:26:04.000Z,7.6
2022-12-25T14:27:21.074Z,7.5
2022-12-25T14:28:36.000Z,7.6
2022-12-25T14:29:53.000Z,7.6
2022-12-25T14:31:09.000Z,7.6
2022-12-25T14:32:25.653Z,7.6
2022-12-25T14:33:41.000Z,7.5
2022-12-25T14:34:56.000Z,7.5
2022-12-25T14:36:13.130Z,7.5
2022-12-25T14:37:29.264Z,7.5
2022-12-25T14:38:45.000Z,7.5
2022-12-25T14:40:01.000Z,7.5
2022-12-25T14:41:17.000Z,7.5
2022-12-25T14:42:33.000Z,7.4
2022-12-25T14:43:49.000Z,7.5
2022-12-25T14:45:05.000Z,7.7
2022-12-25T14:46:22.000Z,7.7
2022-12-25T14:47:38.000Z,7.7
2022-12-25T14:48:54.000Z,7.7
2022-12-25T14:50:10.000Z,7.6
2022-12-25T14:51:25.000Z,7.6
2022-12-25T14:52:41.000Z,7.6
2022-12-25T14:53:57.000Z,7.6
2022-12-25T14:55:14.000Z,7.6
2022-12-25T14:56:30.000Z,7.6
2022-12-25T14:57:46.000Z,7.7
2022-12-25T14:59:02.771Z,7.5
2022-12-25T15:00:18.000Z,7.5
2022-12-25T15:01:34.000Z,7.6
2022-12-25T15:02:50.000Z,7.5
2022-12-25T15:04:07.000Z,7.5
2022-12-25T15:05:23.000Z,7.6
2022-12-25T15:06:39.000Z,7.6
2022-12-25T15:07:54.815Z,7.6
2022-12-25T15:09:10.000Z,7.6
2022-12-25T15:10:26.000Z,7.6
2022-12-25T15:11:43.262Z,7.6
2022-12-25T15:12:59.000Z,7.7
2022-12-25T15:14:15.000Z,7.7
2022-12-25T15:15:31.000Z,7.7
2022-12-25T15:16:47.845Z,7.8
2022-12-25T15:18:03.000Z,7.8
2022-12-25T15:19:19.000Z,7.9
2022-12-25T15:20:36.000Z,7.9
2022-12-25T15:21:52.435Z,7.9
2022-12-25T15:23:08.588Z,7.9
2022-12-25T15:24:23.000Z,7.9
2022-12-25T15:25:39.000Z,8
2022-12-25T15:26:55.000Z,7.9
2022-12-25T15:28:11.000Z,8
2022-12-25T15:29:28.000Z,8
2022-12-25T15:30:44.000Z,8
2022-12-25T15:32:00.000Z,8
2022-12-25T15:33:16.000Z,7.9
2022-12-25T15:34:32.000Z,7.9
2022-12-25T15:35:48.000Z,8
2022-12-25T15:37:04.000Z,7.9
2022-12-25T15:38:21.000Z,8
2022-12-25T15:39:37.000Z,7.9
2022-12-25T15:40:52.000Z,8
2022-12-25T15:42:08.000Z,7.9
2022-12-25T15:43:24.000Z,7.9
2022-12-25T15:44:40.000Z,8
2022-12-25T15:45:57.000Z,7.9
2022-12-25T15:47:13.000Z,8
2022-12-25T15:48:29.000Z,8.2
2022-12-25T15:49:45.000Z,8.7
2022-12-25T15:51:01.000Z,8.5
2022-12-25T15:52:17.000Z,8.4
2022-12-25T15:53:34.138Z,8.4
2022-12-25T15:54:50.000Z,8.3
2022-12-25T15:56:06.423Z,8.2
2022-12-25T15:57:21.000Z,8.2
2022-12-25T15:58:37.000Z,8.1
2022-12-25T15:59:53.000Z,8.1
2022-12-25T16:01:10.028Z,8.1
2022-12-25T16:02:25.000Z,8.1
2022-12-25T16:03:42.000Z,8.1
2022-12-25T16:04:58.000Z,8.1
2022-12-25T16:06:14.000Z,8.1
2022-12-25T16:07:30.000Z,8.1
2022-12-25T16:08:46.000Z,8.1
2022-12-25T16:10:02.000Z,8.1
2022-12-25T16:11:18.000Z,8.1
2022-12-25T16:12:35.000Z,8.2
2022-12-25T16:13:50.000Z,8.1
2022-12-25T16:15:06.661Z,8.1
2022-12-25T16:16:22.000Z,8
2022-12-25T16:17:38.000Z,8.1
2022-12-25T16:18:54.000Z,8.1
2022-12-25T16:20:11.000Z,8.1
2022-12-25T16:21:27.000Z,8.1
2022-12-25T16:22:43.000Z,8.3
2022-12-25T16:23:59.000Z,8.3
2022-12-25T16:25:15.000Z,8.1
2022-12-25T16:26:31.979Z,8.2
2022-12-25T16:27:48.128Z,8.1
2022-12-25T16:29:04.000Z,8.1
2022-12-25T16:30:19.000Z,8.1
2022-12-25T16:31:35.000Z,8.1
2022-12-25T16:32:51.000Z,8.1
2022-12-25T16:34:07.000Z,8.1
2022-12-25T16:35:23.000Z,8
2022-12-25T16:36:39.000Z,8
2022-12-25T16:37:56.000Z,8
2022-12-25T16:39:12.000Z,8
2022-12-25T16:40:28.000Z,8.1
2022-12-25T16:41:44.000Z,8.1
2022-12-25T16:43:00.000Z,8
2022-12-25T16:44:16.000Z,8
2022-12-25T16:45:32.000Z,8
2022-12-25T16:46:48.000Z,8
2022-12-25T16:48:04.000Z,8.3
2022-12-25T16:49:20.000Z,8.5
2022-12-25T16:50:36.000Z,9.5
2022-12-25T16:51:52.945Z,10
2022-12-25T16:53:08.000Z,10.2
2022-12-25T16:54:25.000Z,10.3
2022-12-25T16:55:41.000Z,10.1
2022-12-25T16:56:57.000Z,10
2022-12-25T16:58:13.000Z,9.7
2022-12-25T16:59:29.000Z,9.6
2022-12-25T17:00:45.000Z,9.4
2022-12-25T17:02:02.123Z,9.1
2022-12-25T17:03:17.000Z,8.9
2022-12-25T17:04:33.000Z,8.8
2022-12-25T17:05:49.000Z,8.8
2022-12-25T17:07:05.000Z,8.8
2022-12-25T17:08:21.868Z,8.6
2022-12-25T17:09:37.000Z,8.6
2022-12-25T17:10:53.000Z,8.6
2022-12-25T17:12:10.000Z,8.6